Архив погоды в Бийске

Метеограмма Бийск
Пятница, 21 Сентября
Время местн. Темп Ветер Видим Явления Облачность нижн/средн/верх Атм. давл. Влжн Точка росы ВНГО R Сост. почвы Tg s
Напр Скр Прв ур.ст ур.м изм
03:00 +5.5° В 1 - 20 км - переменная облачность 741 762 -0.2 72% +0.8° более 2.5 км - - - -
00:00 +6.8° В 1 - 20 км - переменная облачность 741 762 -0.5 64% +0.4° более 2.5 км - - - -
Четверг, 20 Сентября
Время местн. Темп Ветер Видим Явления Облачность нижн/средн/верх Атм. давл. Влжн Точка росы ВНГО R Сост. почвы Tg s
Напр Скр Прв ур.ст ур.м изм
21:00 +7.2° В,С-В 2 - 20 км - переменная облачность 742 762 -0.3 64% +0.9° более 2.5 км - - - -
18:00 +17.4° В 1 - 20 км - переменная облачность 742 762 -0.5 31% -0.1° более 2.5 км 0 - - -
15:00 +20.4° В 2 - 20 км - переменная облачность 743 762 -1.1 24% -1.1° более 2.5 км - - - -
12:00 +17.1° В 2 - 20 км - переменная облачность 744 764 -0.8 31% -0.3° более 2.5 км - - - -
09:00 +9.5° В 3 - 20 км - переменная облачность 745 765 0 52% +0.2° более 2.5 км - - - -
06:00 +2.8° В 2 - 20 км - ясно 745 766 -0.3 75% -1.1° более 2.5 км 0 Сухая (без трещин) - -
03:00 +5.5° В 3 - 20 км - ясно 745 766 -1.3 66% -0.3° более 2.5 км - - - -
00:00 +6.8° В 3 - 20 км - ясно 746 767 -1.4 58% -0.8° более 2.5 км - - - -
Среда, 19 Сентября
Время местн. Темп Ветер Видим Явления Облачность нижн/средн/верх Атм. давл. Влжн Точка росы ВНГО R Сост. почвы Tg s
Напр Скр Прв ур.ст ур.м изм
21:00 +9.4° В 3 - 20 км - ясно 748 768 -1.3 44% -2.2° более 2.5 км - - - -
18:00 +13.3° В 3 - 20 км - ясно 749 769 -1.1 31% -3.3° более 2.5 км 0 - - -
15:00 +15.2° В 4 - 20 км - ясно 750 770 -2 24% -5.1° более 2.5 км - - - -
12:00 +13.1° В,Ю-В 5 - 20 км - ясно 752 772 -1 35% -2° более 2.5 км - - - -
09:00 +7° В 3 - 20 км - ясно 753 774 +0.2 72% +2.3° более 2.5 км - - - -
06:00 -0.5° В 1 - 4 км дымка ясно 753 774 +0.2 92% -1.7° более 2.5 км 0 Замерзшая - -
03:00 -1.1° В 1 - 20 км - ясно 753 774 -0.4 91% -2.4° более 2.5 км - - - -
00:00 +0.2° В 1 - 20 км - ясно 753 774 +0.2 89% -1.4° более 2.5 км - - - -
Вторник, 18 Сентября
Время местн. Темп Ветер Видим Явления Облачность нижн/средн/верх Атм. давл. Влжн Точка росы ВНГО R Сост. почвы Tg s
Напр Скр Прв ур.ст ур.м изм
21:00 +3.8° Ю,Ю-В 1 - 20 км - ясно 753 774 +1.1 80% +0.6° более 2.5 км - - - -
18:00 +10° С-З 1 - 20 км - переменная облачность 752 772 +0.4 48% -0.6° 1 км 0 - - -
15:00 +13° З,С-З 1 - 20 км - облачно с прояснениями 751 772 +0.1 33% -2.7° 1 км - - - -
12:00 +11.7° В 2 - 20 км - облачно с прояснениями 751 772 +0.4 38% -2° 1 км - - - -
09:00 +8.2° С 2 - 20 км - облачно с прояснениями 751 771 +1.6 71% +3.2° 1 км - - - -
06:00 +6° С 1 - 20 км - облачно 749 770 +0.8 84% +3.5° 1 км 0.1 Влажная (без луж) - -
03:00 +6.6° С-З 1 - 20 км - облачно 748 769 +0.3 86% +4.4° 1 км - - - -
00:00 +7.4° С 1 - 20 км небо без изменений {ливневые осадки} облачно 748 769 +0.6 82% +4.6° 1 км - - - -